»·PEaware :: BTQ481 KMSL-KATL

BTQ481 :: KMSL-KATL

FLIGHT INFORMATION

Flight Status: Arrived
Operator: Unknown
More flights by this operator :: More flights under this callsign
Pilot: Armando C. (16967)
Aircraft: PILATUS PC-12 EAGLE
(PC12)
More flights by this aircraft type
Origin: KMSL Northwest Alabama Regl
United States
Destination: KATL Hartsfield-Jackson Atlanta
United States
More flights between these airports :: More routes between these airports
Route: RMG RMG5
File this flight plan on PilotEdge
Remarks: PBN / D2 DOF / 181013 REG / N645PC EET / KZTL0013 OPR / BTQ PER / B RMK / TCAS SIMBRIEF
Altitude:
(Current/Filed)
21,000ft
Speed:
(Current/Filed)
278kts
Departed: 13-Oct-18 12:54 PM
Arrived: 13-Oct-18 02:06 PM
Distance/Time
Traveled:
171nm/1:11
Distance/Time
To Go:
Arrived

Flight Plot

Page will automatically refresh every two minutes.

Flight plan parsing failed; only flown route is shown


Map Options




Map Legend


Flown Route
Filed Route
Departure Airport
Arrival Airport
Navaid (VOR, NDB)
Fix

Horizontal Profiles

Position Reports

Time Latitude Longitude Heading Altitude Ground
Speed
13-Oct-18 12:46 34.746088 -87.617933 269 538ft 0kts
13-Oct-18 12:47 34.746088 -87.617933 269 538ft 0kts
13-Oct-18 12:48 34.746088 -87.617933 269 538ft 0kts
13-Oct-18 12:49 34.746088 -87.617933 269 538ft 0kts
13-Oct-18 12:50 34.746088 -87.617933 269 538ft 0kts
13-Oct-18 12:51 34.744633 -87.616877 178 538ft 14kts
13-Oct-18 12:52 34.740134 -87.617002 168 534ft 10kts
13-Oct-18 12:53 34.739991 -87.616696 88 535ft 0kts
13-Oct-18 12:54 34.739991 -87.616696 88 535ft 0kts
13-Oct-18 12:55 34.740002 -87.616275 79 536ft 11kts
13-Oct-18 12:56 34.764274 -87.616528 0 1430ft 130kts
13-Oct-18 12:57 34.775797 -87.590679 133 2979ft 142kts
13-Oct-18 12:58 34.738455 -87.556577 124 5191ft 153kts
13-Oct-18 12:59 34.724665 -87.515909 103 6705ft 160kts
13-Oct-18 13:00 34.713507 -87.466849 103 8316ft 169kts
13-Oct-18 13:01 34.703475 -87.421914 104 9684ft 176kts
13-Oct-18 13:02 34.688382 -87.354510 107 11612ft 184kts
13-Oct-18 13:03 34.677449 -87.306197 109 12899ft 188kts
13-Oct-18 13:04 34.663730 -87.245499 109 14406ft 194kts
13-Oct-18 13:05 34.649401 -87.182097 109 15874ft 200kts
13-Oct-18 13:06 34.634756 -87.117473 109 17272ft 205kts
13-Oct-18 13:07 34.619637 -87.050963 108 18611ft 210kts
13-Oct-18 13:08 34.604148 -86.982672 107 19901ft 215kts
13-Oct-18 13:09 34.588027 -86.911899 107 21027ft 223kts
13-Oct-18 13:10 34.570102 -86.834057 106 21065ft 258kts
13-Oct-18 13:11 34.549949 -86.746373 106 21058ft 276kts
13-Oct-18 13:12 34.529000 -86.655606 106 21055ft 282kts
13-Oct-18 13:13 34.507728 -86.563752 106 21055ft 284kts
13-Oct-18 13:14 34.486928 -86.471019 105 21053ft 285kts
13-Oct-18 13:15 34.465558 -86.378635 106 21050ft 286kts
13-Oct-18 13:16 34.444115 -86.287340 107 21045ft 285kts
13-Oct-18 13:17 34.422408 -86.195207 107 21046ft 285kts
13-Oct-18 13:18 34.408836 -86.137840 107 21045ft 285kts
13-Oct-18 13:19 34.387079 -86.046143 107 21045ft 285kts
13-Oct-18 13:20 34.361582 -85.939095 107 21045ft 285kts
13-Oct-18 13:21 34.343350 -85.862847 107 21047ft 285kts
13-Oct-18 13:22 34.321435 -85.771487 107 21049ft 285kts
13-Oct-18 13:23 34.299368 -85.679831 107 21051ft 285kts
13-Oct-18 13:24 34.276505 -85.585428 107 20099ft 297kts
13-Oct-18 13:25 34.253225 -85.489425 107 19125ft 299kts
13-Oct-18 13:26 34.229917 -85.393663 107 18153ft 297kts
13-Oct-18 13:27 34.207005 -85.299875 107 17174ft 295kts
13-Oct-18 13:28 34.184073 -85.206387 107 16175ft 292kts
13-Oct-18 13:29 34.158874 -85.113752 130 15158ft 285kts
13-Oct-18 13:30 34.105532 -85.045274 136 14168ft 279kts
13-Oct-18 13:31 34.047692 -84.970634 136 13998ft 251kts
13-Oct-18 13:32 34.008846 -84.919932 135 13999ft 243kts
13-Oct-18 13:33 33.971582 -84.855503 115 14001ft 244kts
13-Oct-18 13:34 33.941371 -84.783852 120 13980ft 243kts
13-Oct-18 13:35 33.908020 -84.709656 120 13021ft 268kts
13-Oct-18 13:36 33.874424 -84.634955 120 12095ft 272kts
13-Oct-18 13:37 33.841365 -84.561633 119 11188ft 272kts
13-Oct-18 13:38 33.803402 -84.477611 119 10143ft 270kts
13-Oct-18 13:39 33.774848 -84.414573 118 9353ft 268kts
13-Oct-18 13:40 33.762396 -84.332109 94 8420ft 265kts
13-Oct-18 13:41 33.755510 -84.245846 94 7424ft 260kts
13-Oct-18 13:42 33.748931 -84.164159 94 6464ft 255kts
13-Oct-18 13:43 33.748490 -84.158649 94 6399ft 255kts
13-Oct-18 13:57 33.701907 -84.247042 89 5035ft 236kts
13-Oct-18 13:58 33.702797 -84.169612 88 5035ft 234kts
13-Oct-18 13:59 33.678637 -84.112542 173 5040ft 214kts
13-Oct-18 14:00 33.633641 -84.131198 274 4863ft 198kts
13-Oct-18 14:01 33.646325 -84.195147 271 4205ft 209kts
13-Oct-18 14:02 33.646739 -84.255892 269 3430ft 127kts
13-Oct-18 14:03 33.646691 -84.291190 269 2845ft 99kts
13-Oct-18 14:04 33.646714 -84.322007 269 2357ft 92kts
13-Oct-18 14:05 33.646744 -84.350749 270 1898ft 89kts
13-Oct-18 14:06 33.646767 -84.377713 270 1472ft 88kts
13-Oct-18 14:07 33.646784 -84.403992 270 1060ft 88kts
13-Oct-18 14:08 33.646769 -84.423269 269 981ft 34kts
13-Oct-18 14:09 33.645893 -84.426328 240 991ft 3kts
13-Oct-18 14:10 33.643405 -84.427332 162 998ft 15kts
13-Oct-18 14:11 33.642974 -84.426288 90 997ft 0kts

Navigation Log

Ident Type
Flight plan parsing failed, navigation log unavailable